KQBF/QBF METAR and TAF weather

Enter ICAO airport designator
Station Type Date Time Source
KQBF METAR 2019/10/16 22:56 UTC NOAA

KQBF 162256Z AUTO VRB03KT 9999 SCT130 29/22 A2992 RMK AO2 SLP087 WND DATA ESTMD T02920217


Station Type Date Time Source
KQBF Decoded METAR 2019/10/16 22:56 UTC NOAA

Station name not available
Oct 16, 2019 - 06:56 PM EDT / 2019.10.16 2256 UTC
Wind: Variable at 3 MPH (3 KT):0
Visibility: greater than 7 mile(s):0
Sky conditions: partly cloudy
Temperature: 84.6 F (29.2 C)
Dew Point: 71.1 F (21.7 C)
Relative Humidity: 64%
Pressure (altimeter): 29.92 in. Hg (1013 hPa)
ob: KQBF 162256Z AUTO VRB03KT 9999 SCT130 29/22 A2992 RMK AO2 SLP087 WND DATA ESTMD T02920217
cycle: 23

Station Type Date Time Source
KQBF TAF 2009/08/24 17:21 UTC NOAA

TAF
AMD KQBF 241721Z 241313 06010G20KT 9999 FEW025 SCT160 BKN230 QNH2915INS
BECMG 2223 100020G25KT 9000 -SHRA SCT009 BKN025 OVC035 610505 QNH2910INS
TEMPO 0209 10025G35KT BKN010
BECMG 1213 09020G25KT 9000 -SHRA SCT015 BKN035 OVC050 610606 T11/15Z T10/00Z
AMD 241744 LIMITED METWATCH 2417 TIL 2507

Example: see airport list